Time;durP1;ratioP1;P1;durP2;ratioP2;P2;SDS_P1;SDS_P2;PMS_P1;PMS_P2;Temp;Humidity;BMP_temperature;BMP_pressure;BME280_temperature;BME280_humidity;BME280_pressure;Samples;Min_cycle;Max_cycle;Signal;HPM_P1;HPM_P2
2022/03/09 00:00:13;;;;;;;16.67;8.97;;;1.60;62.80;;;;;;5048328;28;20378;-55
2022/03/09 00:02:39;;;;;;;17.90;8.70;;;0.80;62.30;;;;;;5051575;28;20404;-55
2022/03/09 00:05:06;;;;;;;18.83;8.82;;;1.00;61.90;;;;;;5052769;28;20890;-55
2022/03/09 00:07:31;;;;;;;18.93;8.80;;;1.10;61.50;;;;;;5052239;28;20404;-55
2022/03/09 00:09:57;;;;;;;18.10;8.97;;;1.10;61.40;;;;;;5053002;28;20806;-55
2022/03/09 00:12:22;;;;;;;17.67;8.50;;;1.10;60.90;;;;;;5052020;28;20450;-55
2022/03/09 00:14:48;;;;;;;16.70;8.73;;;1.10;61.20;;;;;;5052773;28;20401;-55
2022/03/09 00:17:14;;;;;;;17.10;8.33;;;1.10;61.20;;;;;;5052091;28;20472;-56
2022/03/09 00:19:40;;;;;;;19.50;9.03;;;1.20;61.00;;;;;;5052461;28;20389;-55
2022/03/09 00:22:06;;;;;;;18.50;8.87;;;1.30;60.90;;;;;;5052436;28;20933;-55
2022/03/09 00:24:32;;;;;;;18.70;9.20;;;1.30;60.40;;;;;;5051920;28;20487;-55
2022/03/09 00:26:59;;;;;;;22.70;10.38;;;1.40;60.50;;;;;;5052497;28;20386;-56
2022/03/09 00:29:25;;;;;;;18.23;8.57;;;1.40;60.10;;;;;;5051981;28;20381;-56
2022/03/09 00:31:51;;;;;;;20.85;8.43;;;1.30;59.80;;;;;;5051153;28;20396;-55
2022/03/09 00:34:17;;;;;;;18.40;8.63;;;1.10;59.80;;;;;;5051479;28;20458;-60
2022/03/09 00:36:42;;;;;;;18.80;9.20;;;0.90;59.90;;;;;;5052258;28;20456;-52
2022/03/09 00:39:08;;;;;;;18.70;9.35;;;2.00;61.50;;;;;;5052048;28;20393;-52
2022/03/09 00:41:34;;;;;;;17.67;8.70;;;0.70;61.20;;;;;;5050303;28;20868;-52
2022/03/09 00:44:00;;;;;;;20.98;9.80;;;0.70;61.70;;;;;;5052358;28;20803;-52
2022/03/09 00:46:25;;;;;;;19.87;9.97;;;0.60;61.90;;;;;;5051672;28;20417;-53
2022/03/09 00:48:51;;;;;;;20.70;10.30;;;0.60;61.90;;;;;;5051954;28;20799;-52
2022/03/09 00:51:17;;;;;;;20.13;9.82;;;0.50;62.20;;;;;;5049674;28;20459;-52
2022/03/09 00:53:42;;;;;;;22.17;11.33;;;0.40;63.40;;;;;;5052109;28;20393;-52
2022/03/09 00:56:08;;;;;;;22.33;10.93;;;0.40;64.60;;;;;;5052059;28;20389;-52
2022/03/09 00:58:33;;;;;;;21.40;9.95;;;0.60;66.30;;;;;;5051193;28;20397;-52
2022/03/09 01:01:00;;;;;;;20.37;10.30;;;0.60;67.20;;;;;;5067406;28;20389;-52
2022/03/09 01:03:25;;;;;;;17.77;9.02;;;2.20;68.80;;;;;;5050813;28;20417;-52
2022/03/09 01:05:51;;;;;;;19.65;9.68;;;0.80;67.40;;;;;;5051794;28;20867;-52
2022/03/09 01:08:17;;;;;;;19.60;10.30;;;0.80;67.50;;;;;;5050808;28;20862;-53
2022/03/09 01:10:42;;;;;;;19.45;9.73;;;0.80;67.90;;;;;;5051961;28;20865;-52
2022/03/09 01:13:08;;;;;;;19.33;10.30;;;0.80;68.40;;;;;;5051680;28;20397;-52
2022/03/09 01:15:34;;;;;;;21.87;9.53;;;0.80;68.40;;;;;;5051015;28;20394;-52
2022/03/09 01:17:59;;;;;;;20.23;8.83;;;0.50;68.00;;;;;;5050224;28;20455;-52
2022/03/09 01:20:25;;;;;;;18.35;9.32;;;-0.40;70.20;;;;;;5050268;28;20435;-52
2022/03/09 01:22:52;;;;;;;18.30;8.80;;;-0.60;72.60;;;;;;5051141;28;20739;-52
2022/03/09 01:25:19;;;;;;;22.45;10.88;;;-0.80;75.80;;;;;;5050479;28;20444;-55
2022/03/09 01:27:44;;;;;;;20.08;9.98;;;-1.00;77.30;;;;;;5051243;28;20389;-55
2022/03/09 01:30:11;;;;;;;20.63;9.63;;;-0.90;79.50;;;;;;5057085;28;20411;-52
2022/03/09 01:32:37;;;;;;;19.45;9.60;;;0.30;80.70;;;;;;5074611;28;20808;-55
2022/03/09 01:35:03;;;;;;;22.43;9.70;;;-0.70;81.00;;;;;;5051124;28;20473;-54
2022/03/09 01:37:29;;;;;;;24.23;10.55;;;-0.90;80.90;;;;;;5060261;28;20405;-52
2022/03/09 01:39:55;;;;;;;18.60;9.68;;;-0.80;80.60;;;;;;5056744;28;20883;-52
2022/03/09 01:42:21;;;;;;;21.38;9.55;;;-0.70;80.30;;;;;;5070477;28;20426;-52
2022/03/09 01:44:46;;;;;;;22.77;9.98;;;-0.70;80.20;;;;;;5051271;28;20405;-52
2022/03/09 01:47:12;;;;;;;20.47;9.43;;;0.30;81.70;;;;;;5050652;28;20431;-53
2022/03/09 01:49:39;;;;;;;20.77;9.80;;;-0.60;80.30;;;;;;5050617;28;20389;-52
2022/03/09 01:52:05;;;;;;;24.35;10.65;;;-0.60;83.10;;;;;;5050944;28;20398;-52
2022/03/09 01:54:31;;;;;;;19.95;9.60;;;-0.70;84.40;;;;;;5050003;28;21246;-52
2022/03/09 01:56:58;;;;;;;20.83;10.70;;;-0.80;84.40;;;;;;5050757;28;20381;-55
2022/03/09 01:59:24;;;;;;;22.13;9.52;;;-1.00;84.50;;;;;;5050139;28;20381;-52
2022/03/09 02:01:50;;;;;;;19.20;9.23;;;-0.90;86.10;;;;;;5050112;28;20732;-52
2022/03/09 02:04:17;;;;;;;17.52;8.80;;;-0.70;85.50;;;;;;5049927;28;20431;-54
2022/03/09 02:06:43;;;;;;;22.00;10.63;;;-0.60;84.40;;;;;;5065844;28;20945;-53
2022/03/09 02:11:55;;;;;;;19.20;10.23;;;-0.60;82.90;;;;;;5050477;28;20457;-53
2022/03/09 02:14:28;;;;;;;21.45;9.82;;;-0.80;83.60;;;;;;5049828;28;20843;-53
2022/03/09 02:16:55;;;;;;;22.45;9.52;;;-0.80;84.40;;;;;;5050416;28;20400;-53
2022/03/09 02:19:21;;;;;;;24.10;10.30;;;-0.90;86.60;;;;;;5049096;28;20374;-53
2022/03/09 02:21:48;;;;;;;20.77;9.48;;;-1.00;88.90;;;;;;5050179;28;20899;-53
2022/03/09 02:24:14;;;;;;;18.80;8.65;;;-0.50;90.30;;;;;;5049113;28;20481;-53
2022/03/09 02:26:40;;;;;;;19.40;9.10;;;-1.00;90.00;;;;;;5048520;28;20476;-53
2022/03/09 02:29:06;;;;;;;19.70;8.48;;;-0.80;89.40;;;;;;5049791;28;20384;-53
2022/03/09 02:31:32;;;;;;;16.70;8.50;;;-0.60;87.80;;;;;;5047984;28;20377;-53
2022/03/09 02:33:57;;;;;;;19.95;10.57;;;-0.70;86.70;;;;;;5049730;28;20985;-53
2022/03/09 02:36:23;;;;;;;19.10;9.30;;;-0.70;87.00;;;;;;5049355;28;20386;-53
2022/03/09 02:38:48;;;;;;;19.73;9.97;;;-0.80;86.90;;;;;;5050042;28;20405;-53
2022/03/09 02:41:14;;;;;;;20.30;9.20;;;-1.00;86.80;;;;;;5049377;28;20390;-53
2022/03/09 02:43:39;;;;;;;20.07;8.53;;;-1.00;87.40;;;;;;5049522;28;20386;-53
2022/03/09 02:46:05;;;;;;;17.52;8.10;;;-1.00;87.70;;;;;;5049623;28;20547;-53
2022/03/09 02:48:31;;;;;;;17.38;7.90;;;-0.80;87.70;;;;;;5048931;28;20386;-53
2022/03/09 02:50:57;;;;;;;16.23;8.30;;;-0.70;86.90;;;;;;5049530;28;20952;-53
2022/03/09 02:53:25;;;;;;;15.35;8.07;;;-0.70;86.40;;;;;;5049097;28;20431;-53
2022/03/09 02:55:52;;;;;;;18.43;8.43;;;-0.80;85.70;;;;;;5049639;28;20393;-53
2022/03/09 02:58:18;;;;;;;17.92;8.93;;;-0.80;85.90;;;;;;5048670;28;20767;-53
2022/03/09 03:00:43;;;;;;;21.53;10.07;;;-0.80;86.40;;;;;;5049816;28;20377;-53
2022/03/09 03:03:09;;;;;;;17.50;8.30;;;-0.80;86.70;;;;;;5049320;28;20385;-54
2022/03/09 03:05:34;;;;;;;20.55;9.13;;;0.30;87.20;;;;;;5048909;28;21012;-53
2022/03/09 03:08:00;;;;;;;17.97;8.80;;;-0.80;87.00;;;;;;5050017;28;20385;-53
2022/03/09 03:10:26;;;;;;;17.60;8.40;;;-0.90;87.00;;;;;;5048817;28;20485;-53
2022/03/09 03:12:51;;;;;;;19.67;8.70;;;0.50;90.00;;;;;;5049655;28;20409;-53
2022/03/09 03:15:17;;;;;;;18.17;8.80;;;-1.00;89.20;;;;;;5048704;28;20381;-55
2022/03/09 03:17:42;;;;;;;19.50;9.10;;;-1.10;89.50;;;;;;5049227;28;20893;-55
2022/03/09 03:20:09;;;;;;;18.27;9.10;;;0.00;90.90;;;;;;5049421;28;20476;-55
2022/03/09 03:22:34;;;;;;;19.80;8.55;;;-1.10;91.00;;;;;;5048709;28;20650;-53
2022/03/09 03:25:00;;;;;;;19.27;8.88;;;-1.10;91.00;;;;;;5049183;28;20886;-53
2022/03/09 03:27:26;;;;;;;20.17;9.20;;;-1.10;90.70;;;;;;5071059;28;20412;-53
2022/03/09 03:29:51;;;;;;;20.60;9.03;;;-1.00;91.30;;;;;;5057576;28;20390;-55
2022/03/09 03:32:17;;;;;;;18.80;9.88;;;0.00;92.10;;;;;;5067447;28;20534;-55
2022/03/09 03:34:42;;;;;;;20.50;9.57;;;-1.30;91.80;;;;;;5058630;28;20413;-55
2022/03/09 03:37:08;;;;;;;19.83;9.37;;;-1.30;92.40;;;;;;5052244;28;20735;-55
2022/03/09 03:39:34;;;;;;;20.38;8.70;;;-1.20;92.10;;;;;;5052734;28;20381;-55
2022/03/09 03:42:00;;;;;;;18.45;8.50;;;-0.90;92.10;;;;;;5053290;28;20401;-55
2022/03/09 03:44:25;;;;;;;18.85;9.45;;;-1.30;92.10;;;;;;5052550;28;20504;-55
2022/03/09 03:46:51;;;;;;;20.70;9.27;;;-1.40;92.40;;;;;;5053350;28;20385;-55
2022/03/09 03:49:16;;;;;;;20.70;9.20;;;-1.60;92.60;;;;;;5052608;28;20472;-55
2022/03/09 03:51:42;;;;;;;25.10;9.48;;;-1.70;92.90;;;;;;5052551;28;20407;-55
2022/03/09 03:54:09;;;;;;;19.30;9.23;;;-1.70;93.20;;;;;;5053152;28;20456;-55
2022/03/09 03:56:34;;;;;;;19.67;9.77;;;-1.70;93.70;;;;;;5052179;28;20953;-55
2022/03/09 03:59:00;;;;;;;20.42;9.10;;;-1.80;94.10;;;;;;5053030;28;20373;-55
2022/03/09 04:01:26;;;;;;;19.23;8.77;;;-1.90;94.40;;;;;;5052070;28;20459;-55
2022/03/09 04:03:51;;;;;;;18.53;8.90;;;-1.90;94.90;;;;;;5051624;28;20428;-55
2022/03/09 04:06:18;;;;;;;20.20;9.40;;;-2.00;95.00;;;;;;5052404;28;20436;-55
2022/03/09 04:08:43;;;;;;;19.52;8.38;;;-2.00;95.50;;;;;;5052936;28;20400;-55
2022/03/09 04:11:09;;;;;;;17.60;8.60;;;-1.90;95.10;;;;;;5052952;28;20377;-55
2022/03/09 04:13:35;;;;;;;18.33;9.02;;;-1.80;94.80;;;;;;5051756;28;20476;-55
2022/03/09 04:16:00;;;;;;;20.15;8.50;;;-1.80;94.60;;;;;;5053479;28;20381;-55
2022/03/09 04:18:26;;;;;;;18.63;8.50;;;-2.00;94.90;;;;;;5062951;28;20400;-55
2022/03/09 04:20:51;;;;;;;18.03;9.17;;;-2.00;95.20;;;;;;5052275;28;20436;-55
2022/03/09 04:23:17;;;;;;;17.00;8.60;;;-2.10;95.60;;;;;;5051476;28;20994;-55
2022/03/09 04:25:43;;;;;;;16.07;8.30;;;-2.00;96.10;;;;;;5052093;28;20413;-55
2022/03/09 04:28:08;;;;;;;22.37;9.37;;;-2.10;96.00;;;;;;5052451;28;20450;-55
2022/03/09 04:30:34;;;;;;;17.67;8.40;;;-2.00;96.40;;;;;;5069888;28;21039;-55
2022/03/09 04:33:00;;;;;;;17.38;8.70;;;-2.00;96.00;;;;;;5071118;28;20386;-55
2022/03/09 04:35:26;;;;;;;19.48;8.80;;;-2.00;96.20;;;;;;5071582;28;20383;-55
2022/03/09 04:37:51;;;;;;;20.80;8.63;;;-1.90;96.40;;;;;;5072496;28;20391;-55
2022/03/09 04:40:17;;;;;;;19.80;8.37;;;-1.80;96.50;;;;;;5069834;28;20429;-55
2022/03/09 04:42:43;;;;;;;16.87;8.23;;;-2.20;95.90;;;;;;5070734;28;20380;-55
2022/03/09 04:45:10;;;;;;;17.10;8.45;;;-1.60;95.80;;;;;;5069107;28;20741;-55
2022/03/09 04:47:35;;;;;;;21.08;8.60;;;-1.50;95.70;;;;;;5070606;28;20593;-55
2022/03/09 04:50:02;;;;;;;24.17;9.35;;;-1.40;95.70;;;;;;5071635;28;20947;-55
2022/03/09 04:52:27;;;;;;;17.58;9.25;;;-1.30;95.60;;;;;;5071588;28;20383;-55
2022/03/09 04:54:53;;;;;;;18.88;8.68;;;-1.20;95.40;;;;;;5071826;28;20868;-55
2022/03/09 04:57:19;;;;;;;19.53;8.77;;;-1.30;95.20;;;;;;5071139;28;20425;-56
2022/03/09 04:59:44;;;;;;;15.20;8.35;;;0.10;96.00;;;;;;5072140;28;20745;-55
2022/03/09 05:02:10;;;;;;;18.15;9.23;;;-1.10;95.90;;;;;;5054129;28;20386;-53
2022/03/09 05:04:36;;;;;;;20.70;9.80;;;-1.10;96.10;;;;;;5066170;28;20396;-53
2022/03/09 05:07:02;;;;;;;21.75;9.88;;;-1.00;96.20;;;;;;5071755;28;20464;-53
2022/03/09 05:09:28;;;;;;;18.48;8.95;;;-1.00;95.80;;;;;;5070827;28;20854;-55
2022/03/09 05:11:53;;;;;;;18.30;9.03;;;0.00;96.10;;;;;;5069504;28;20388;-55
2022/03/09 05:14:19;;;;;;;18.50;9.17;;;-1.20;95.80;;;;;;5069781;28;20384;-55
2022/03/09 05:16:44;;;;;;;19.77;9.30;;;-1.40;95.70;;;;;;5062845;28;20873;-54
2022/03/09 05:19:10;;;;;;;21.80;10.43;;;-1.50;96.30;;;;;;5063597;28;20692;-55
2022/03/09 05:21:36;;;;;;;22.88;10.27;;;-1.40;96.50;;;;;;5070518;28;20564;-55
2022/03/09 05:24:02;;;;;;;19.02;9.95;;;-0.40;98.10;;;;;;5065360;28;20381;-55
2022/03/09 05:26:27;;;;;;;23.33;10.25;;;-1.50;98.30;;;;;;5049420;28;20406;-55
2022/03/09 05:28:56;;;;;;;19.17;9.40;;;-1.40;99.00;;;;;;5066623;28;20395;-55
2022/03/09 05:31:22;;;;;;;19.10;8.95;;;-1.40;99.30;;;;;;5070734;28;20437;-55
2022/03/09 05:33:47;;;;;;;22.15;9.40;;;-1.40;99.70;;;;;;5070904;28;20392;-59
2022/03/09 05:36:13;;;;;;;19.02;9.57;;;-1.30;99.70;;;;;;5069498;28;20404;-55
2022/03/09 05:38:39;;;;;;;22.13;10.00;;;-1.30;99.70;;;;;;5068125;28;20400;-55
2022/03/09 05:41:05;;;;;;;19.48;9.73;;;-1.30;99.80;;;;;;5071043;28;20390;-55
2022/03/09 05:43:30;;;;;;;22.43;10.90;;;-1.30;99.90;;;;;;5070597;28;20423;-55
2022/03/09 05:45:56;;;;;;;22.50;10.17;;;-1.30;99.90;;;;;;5071127;28;20565;-55
2022/03/09 05:48:22;;;;;;;22.05;10.00;;;-1.20;99.90;;;;;;5069436;28;20395;-56
2022/03/09 05:50:48;;;;;;;21.65;10.27;;;-1.30;99.90;;;;;;5069400;28;20419;-55
2022/03/09 05:53:13;;;;;;;23.10;10.23;;;-1.20;99.90;;;;;;5069800;28;20402;-55
2022/03/09 05:55:39;;;;;;;22.33;10.70;;;-1.10;99.90;;;;;;5068349;28;20380;-55
2022/03/09 05:58:06;;;;;;;26.80;10.82;;;-0.80;99.90;;;;;;5069891;28;20392;-55
2022/03/09 06:00:31;;;;;;;22.25;10.32;;;-1.20;99.90;;;;;;5061608;28;20416;-55
2022/03/09 06:02:57;;;;;;;21.60;11.47;;;-0.60;99.90;;;;;;5068574;28;20408;-55
2022/03/09 06:05:23;;;;;;;24.00;11.00;;;-1.10;99.90;;;;;;5065723;28;20451;-55
2022/03/09 06:07:49;;;;;;;21.30;10.80;;;-1.00;99.90;;;;;;5050567;28;20378;-54
2022/03/09 06:10:15;;;;;;;22.45;11.43;;;-1.00;99.90;;;;;;5062156;28;20400;-54
2022/03/09 06:12:41;;;;;;;22.73;11.47;;;-1.00;99.90;;;;;;5055314;28;20398;-54
2022/03/09 06:15:07;;;;;;;22.47;11.13;;;-0.90;99.90;;;;;;5070006;28;20387;-53
2022/03/09 06:17:41;;;;;;;24.60;11.55;;;-0.80;99.90;;;;;;5069583;28;20375;-55
2022/03/09 06:20:17;;;;;;;25.10;11.27;;;-0.80;99.90;;;;;;5124730;27;20401;-54
2022/03/09 06:22:42;;;;;;;26.73;12.25;;;-0.20;99.90;;;;;;5106705;28;20442;-54
2022/03/09 06:25:08;;;;;;;27.98;12.10;;;0.20;99.80;;;;;;5107383;28;20765;-54
2022/03/09 06:27:48;;;;;;;21.42;10.23;;;1.20;96.80;;;;;;5105836;28;20396;-57
2022/03/09 06:30:14;;;;;;;22.63;11.10;;;1.90;94.30;;;;;;5107241;28;20381;-57
2022/03/09 06:32:41;;;;;;;21.08;11.10;;;2.40;92.30;;;;;;5106476;28;20369;-57
2022/03/09 06:35:08;;;;;;;22.75;10.77;;;2.80;91.50;;;;;;5107288;28;20381;-57
2022/03/09 06:37:34;;;;;;;19.70;11.30;;;3.40;90.00;;;;;;5106672;28;20388;-54
2022/03/09 06:40:03;;;;;;;23.60;11.70;;;4.10;86.50;;;;;;5106777;28;20504;-54
2022/03/09 06:42:29;;;;;;;25.25;12.15;;;4.90;83.60;;;;;;5106185;28;20444;-55
2022/03/09 06:44:56;;;;;;;21.25;10.52;;;5.80;78.40;;;;;;5106906;28;20405;-54
2022/03/09 06:47:22;;;;;;;19.70;10.85;;;7.20;74.30;;;;;;5104472;28;20454;-55
2022/03/09 06:49:48;;;;;;;19.73;10.50;;;6.80;69.50;;;;;;5106761;28;20393;-54
2022/03/09 06:52:14;;;;;;;24.90;11.23;;;6.60;67.80;;;;;;5105615;28;20441;-55
2022/03/09 06:54:40;;;;;;;22.30;11.97;;;6.80;68.20;;;;;;5105918;28;20979;-55
2022/03/09 06:57:05;;;;;;;23.13;12.07;;;7.30;65.70;;;;;;5106650;28;20403;-57
2022/03/09 06:59:31;;;;;;;24.17;11.00;;;8.10;64.10;;;;;;5087936;28;20428;-55
2022/03/09 07:01:56;;;;;;;25.08;12.25;;;8.80;61.50;;;;;;5088270;28;20409;-55
2022/03/09 07:04:22;;;;;;;23.10;12.20;;;9.20;58.30;;;;;;5092888;28;20936;-56
2022/03/09 07:06:48;;;;;;;23.67;12.60;;;9.60;56.70;;;;;;5095219;28;20399;-55
2022/03/09 07:09:14;;;;;;;23.63;12.20;;;10.10;54.90;;;;;;5081434;28;20402;-55
2022/03/09 07:11:41;;;;;;;20.17;12.55;;;11.30;76.00;;;;;;5096506;28;20382;-55
2022/03/09 07:14:07;;;;;;;20.00;11.50;;;11.50;49.50;;;;;;5090375;28;20460;-54
2022/03/09 07:16:34;;;;;;;24.35;12.55;;;11.00;60.80;;;;;;5097233;28;20393;-57
2022/03/09 07:19:00;;;;;;;21.13;11.85;;;10.60;60.00;;;;;;5098027;28;20431;-54
2022/03/09 07:21:25;;;;;;;24.83;13.20;;;10.60;58.70;;;;;;5094867;28;20454;-57
2022/03/09 07:23:51;;;;;;;19.35;12.02;;;10.40;59.10;;;;;;5095865;28;20866;-57
2022/03/09 07:26:17;;;;;;;20.30;11.50;;;10.60;58.70;;;;;;5101089;28;20467;-57
2022/03/09 07:28:42;;;;;;;22.02;11.88;;;10.50;57.30;;;;;;5095810;28;20391;-57
2022/03/09 07:31:08;;;;;;;19.23;11.35;;;10.30;57.80;;;;;;5085775;28;20877;-57
2022/03/09 07:33:34;;;;;;;22.30;12.65;;;10.20;47.60;;;;;;5086973;28;20790;-57
2022/03/09 07:36:00;;;;;;;21.60;12.30;;;10.30;48.40;;;;;;5079636;28;20430;-54
2022/03/09 07:38:26;;;;;;;21.70;11.77;;;11.10;48.20;;;;;;5063982;28;20965;-54
2022/03/09 07:40:52;;;;;;;21.90;12.18;;;12.00;46.50;;;;;;5084714;28;20481;-58
2022/03/09 07:43:18;;;;;;;23.03;13.50;;;12.70;46.40;;;;;;5082773;28;20834;-55
2022/03/09 07:45:44;;;;;;;22.27;16.83;;;;;;;;;;5081943;28;20394;-56
2022/03/09 07:48:10;;;;;;;20.20;18.00;;;;;;;;;;5086036;28;20426;-56
2022/03/09 07:50:36;;;;;;;23.95;18.08;;;13.10;41.70;;;;;;5083499;28;20879;-56
2022/03/09 07:53:04;;;;;;;21.27;17.60;;;13.30;41.90;;;;;;5084916;28;20394;-56
2022/03/09 07:55:29;;;;;;;21.27;16.98;;;13.50;42.00;;;;;;5079973;28;20469;-56
2022/03/09 07:57:55;;;;;;;22.00;17.40;;;13.80;40.90;;;;;;5082720;28;20390;-56
2022/03/09 08:00:21;;;;;;;21.37;17.00;;;14.10;40.80;;;;;;5080818;28;20404;-57
2022/03/09 08:02:46;;;;;;;23.02;18.20;;;14.40;39.60;;;;;;5080781;28;20460;-57
2022/03/09 08:05:13;;;;;;;22.13;17.52;;;14.50;39.70;;;;;;5086857;28;20800;-56
2022/03/09 08:07:38;;;;;;;22.57;18.27;;;14.80;39.40;;;;;;5081919;28;20372;-57
2022/03/09 08:10:04;;;;;;;24.05;16.27;;;15.60;38.70;;;;;;5081195;28;20730;-57
2022/03/09 08:12:30;;;;;;;20.77;12.90;;;15.40;38.50;;;;;;5081107;28;20913;-57
2022/03/09 08:14:56;;;;;;;24.98;15.75;;;15.70;38.40;;;;;;5077585;28;20465;-56
2022/03/09 08:17:22;;;;;;;23.50;17.88;;;16.30;47.00;;;;;;5083068;28;20413;-57
2022/03/09 08:19:48;;;;;;;17.50;12.50;;;17.20;37.90;;;;;;5079595;28;20911;-56
2022/03/09 08:22:13;;;;;;;22.93;14.10;;;17.10;35.60;;;;;;5082332;28;20375;-55
2022/03/09 08:24:39;;;;;;;21.17;13.70;;;16.90;36.00;;;;;;5079116;28;20376;-55
2022/03/09 08:27:05;;;;;;;20.30;13.47;;;16.50;36.00;;;;;;5081346;28;20397;-55
2022/03/09 08:29:31;;;;;;;19.95;13.98;;;16.10;35.80;;;;;;5081114;28;20567;-58
2022/03/09 08:31:56;;;;;;;19.17;13.07;;;15.00;36.80;;;;;;5079950;28;20879;-58
2022/03/09 08:34:22;;;;;;;17.30;12.75;;;14.60;36.40;;;;;;5081258;28;20493;-58
2022/03/09 08:36:48;;;;;;;20.73;14.13;;;15.00;36.30;;;;;;5080360;28;20379;-58
2022/03/09 08:39:13;;;;;;;20.27;13.97;;;15.30;36.20;;;;;;5079670;28;20413;-55
2022/03/09 08:41:39;;;;;;;20.55;13.80;;;16.10;35.60;;;;;;5056088;28;20896;-56
2022/03/09 08:44:05;;;;;;;16.38;11.43;;;17.30;35.10;;;;;;5071521;28;20487;-55
2022/03/09 08:46:31;;;;;;;21.23;18.10;;;17.00;32.80;;;;;;5088863;28;20392;-56
2022/03/09 08:48:57;;;;;;;20.17;17.40;;;16.50;34.30;;;;;;5090996;28;20397;-56
2022/03/09 08:51:23;;;;;;;21.42;19.20;;;16.60;34.90;;;;;;5090434;28;20382;-56
2022/03/09 08:53:49;;;;;;;23.80;21.20;;;17.10;33.60;;;;;;5072554;28;20844;-56
2022/03/09 08:56:15;;;;;;;23.40;19.10;;;17.00;33.50;;;;;;5089840;28;20397;-56
2022/03/09 08:58:41;;;;;;;21.43;18.50;;;16.70;33.40;;;;;;5089910;28;20405;-56
2022/03/09 09:01:08;;;;;;;22.10;18.17;;;17.40;33.00;;;;;;5089545;28;20393;-56
2022/03/09 09:03:34;;;;;;;20.27;17.20;;;17.10;32.90;;;;;;5089038;28;20381;-55
2022/03/09 09:06:01;;;;;;;21.48;14.75;;;16.50;32.60;;;;;;5070783;28;20384;-59
2022/03/09 09:08:26;;;;;;;21.15;15.60;;;16.50;32.20;;;;;;5051832;28;20391;-55
2022/03/09 09:10:52;;;;;;;20.63;15.75;;;16.20;33.20;;;;;;5052798;28;20387;-55
2022/03/09 09:13:18;;;;;;;21.07;15.67;;;16.60;33.40;;;;;;5086181;28;20387;-55
2022/03/09 09:15:44;;;;;;;19.90;15.30;;;15.90;32.50;;;;;;5055154;28;20463;-56
2022/03/09 09:18:10;;;;;;;21.70;18.42;;;15.50;33.50;;;;;;5089817;28;20406;-56
2022/03/09 09:20:36;;;;;;;21.58;18.50;;;16.50;33.00;;;;;;5089669;28;20374;-56
2022/03/09 09:23:03;;;;;;;22.55;17.60;;;16.20;32.40;;;;;;5090164;28;20385;-56
2022/03/09 09:25:28;;;;;;;22.17;17.48;;;16.20;33.30;;;;;;5089455;28;20381;-57
2022/03/09 09:27:55;;;;;;;20.67;17.93;;;16.60;33.50;;;;;;5089901;28;20723;-55
2022/03/09 09:30:22;;;;;;;22.20;17.98;;;17.20;32.30;;;;;;5090480;28;20465;-55
2022/03/09 09:32:48;;;;;;;22.40;17.38;;;16.30;33.10;;;;;;5089594;28;20384;-55
2022/03/09 09:35:14;;;;;;;22.40;17.13;;;16.10;33.50;;;;;;5090225;28;20398;-55
2022/03/09 09:37:41;;;;;;;18.92;16.73;;;16.80;32.70;;;;;;5089197;28;20378;-56
2022/03/09 09:40:08;;;;;;;22.58;20.27;;;18.10;31.40;;;;;;5089907;28;20515;-55
2022/03/09 09:42:34;;;;;;;21.15;17.42;;;18.30;31.10;;;;;;5089102;28;20423;-55
2022/03/09 09:45:00;;;;;;;18.58;13.50;;;18.00;31.30;;;;;;5071885;28;20920;-55
2022/03/09 09:47:27;;;;;;;19.52;11.80;;;17.80;31.10;;;;;;5089054;28;20374;-56
2022/03/09 09:49:55;;;;;;;20.50;12.10;;;16.70;31.20;;;;;;5090207;28;20440;-55
2022/03/09 09:52:29;;;;;;;21.80;12.57;;;16.60;31.90;;;;;;5090057;28;20406;-55
2022/03/09 09:54:59;;;;;;;19.38;12.15;;;17.30;32.10;;;;;;5089969;28;20466;-56
2022/03/09 09:57:27;;;;;;;20.80;13.98;;;17.80;32.10;;;;;;5089230;28;20450;-56
2022/03/09 09:59:53;;;;;;;21.87;14.57;;;18.40;31.20;;;;;;5089747;28;20875;-56
2022/03/09 10:02:19;;;;;;;20.17;12.40;;;19.00;30.20;;;;;;5089681;28;20374;-56
2022/03/09 10:04:46;;;;;;;17.97;11.50;;;18.40;30.10;;;;;;5087477;28;21023;-56
2022/03/09 10:07:12;;;;;;;19.40;13.37;;;18.90;30.10;;;;;;5078058;28;20384;-56
2022/03/09 10:09:40;;;;;;;18.17;11.07;;;19.70;30.00;;;;;;5068677;28;20470;-57
2022/03/09 10:12:08;;;;;;;20.83;13.02;;;19.80;29.40;;;;;;5069438;28;20372;-56
2022/03/09 10:14:36;;;;;;;18.95;12.95;;;21.00;28.80;;;;;;5082843;28;20742;-56
2022/03/09 10:17:05;;;;;;;18.20;11.80;;;21.80;28.50;;;;;;5089628;28;20439;-56
2022/03/09 10:19:35;;;;;;;17.90;11.65;;;20.70;28.40;;;;;;5088745;28;20448;-56
2022/03/09 10:22:25;;;;;;;18.73;12.27;;;19.80;28.50;;;;;;5089459;28;20381;-56
2022/03/09 10:24:53;;;;;;;19.75;12.07;;;19.30;28.60;;;;;;5089251;28;20530;-56
2022/03/09 10:27:52;;;;;;;18.98;12.95;;;19.10;29.30;;;;;;5089197;28;20370;-57
2022/03/09 10:30:20;;;;;;;21.33;13.80;;;19.80;28.90;;;;;;5088398;28;20903;-57
2022/03/09 10:32:58;;;;;;;23.02;13.18;;;20.00;28.60;;;;;;5088441;28;20559;-57
2022/03/09 10:35:29;;;;;;;26.15;23.45;;;20.70;28.80;;;;;;5089578;28;20471;-57
2022/03/09 10:37:58;;;;;;;24.58;20.48;;;22.20;27.90;;;;;;5089443;28;20386;-57
2022/03/09 10:40:25;;;;;;;23.77;21.38;;;22.60;27.20;;;;;;5087949;28;20394;-57
2022/03/09 10:42:51;;;;;;;22.73;17.65;;;22.70;27.20;;;;;;5088899;28;20420;-57
2022/03/09 10:45:18;;;;;;;21.30;15.10;;;22.40;27.10;;;;;;5089330;28;20382;-57
2022/03/09 10:47:48;;;;;;;22.67;15.68;;;22.40;26.90;;;;;;5088225;28;20385;-57
2022/03/09 10:50:24;;;;;;;20.07;14.20;;;22.30;26.90;;;;;;5089237;28;20432;-57
2022/03/09 10:52:58;;;;;;;26.27;15.20;;;21.50;27.10;;;;;;5088830;28;20432;-57
2022/03/09 10:55:28;;;;;;;20.47;14.87;;;21.40;26.70;;;;;;5089230;28;20378;-57
2022/03/09 10:58:13;;;;;;;25.67;16.52;;;21.90;26.60;;;;;;5089063;28;20469;-57
2022/03/09 11:00:39;;;;;;;20.85;15.15;;;22.10;26.50;;;;;;5088236;28;20928;-57
2022/03/09 11:03:13;;;;;;;21.27;14.90;;;21.10;26.20;;;;;;5089102;28;20386;-57
2022/03/09 11:05:59;;;;;;;23.58;15.55;;;20.00;26.60;;;;;;5083900;28;20377;-57
2022/03/09 11:08:27;;;;;;;23.52;16.10;;;19.40;27.10;;;;;;5074558;28;20397;-57
2022/03/09 11:10:58;;;;;;;22.00;15.55;;;20.10;26.70;;;;;;5092516;28;20508;-57
2022/03/09 11:13:26;;;;;;;22.95;15.70;;;20.30;27.00;;;;;;5088090;28;20883;-57
2022/03/09 11:15:53;;;;;;;21.38;16.15;;;21.00;27.20;;;;;;5067375;28;20925;-57
2022/03/09 11:18:21;;;;;;;25.00;16.90;;;21.70;26.90;;;;;;5092245;28;20425;-57
2022/03/09 11:20:49;;;;;;;21.92;15.02;;;21.60;26.50;;;;;;5091761;28;20381;-57
2022/03/09 11:23:16;;;;;;;24.10;16.17;;;21.60;26.00;;;;;;5091933;28;20386;-57
2022/03/09 11:26:11;;;;;;;23.70;15.40;;;21.20;25.50;;;;;;5091341;28;20370;-57
2022/03/09 11:28:39;;;;;;;22.48;15.93;;;20.80;25.60;;;;;;5091384;28;20531;-57
2022/03/09 11:31:07;;;;;;;22.33;15.40;;;20.70;25.90;;;;;;5091813;28;20405;-57
2022/03/09 11:33:47;;;;;;;22.10;15.20;;;20.30;25.20;;;;;;5091723;28;20427;-57
2022/03/09 11:36:29;;;;;;;22.67;15.88;;;19.70;25.10;;;;;;5092398;28;20385;-56
2022/03/09 11:39:04;;;;;;;22.33;15.02;;;19.20;25.90;;;;;;5092157;28;20446;-56
2022/03/09 11:41:36;;;;;;;23.52;18.33;;;18.30;25.10;;;;;;5090870;28;20385;-57
2022/03/09 11:44:19;;;;;;;25.67;21.00;;;17.50;25.30;;;;;;5092462;28;20382;-56
2022/03/09 11:46:58;;;;;;;24.08;19.80;;;16.50;26.70;;;;;;5091648;28;20487;-56
2022/03/09 11:49:30;;;;;;;23.77;19.10;;;16.20;27.60;;;;;;5088331;28;20413;-56
2022/03/09 11:52:06;;;;;;;22.50;18.20;;;15.70;27.20;;;;;;5086014;28;20767;-56
2022/03/09 11:54:55;;;;;;;24.08;21.02;;;15.40;28.20;;;;;;5080383;28;20394;-56
2022/03/09 11:57:23;;;;;;;24.30;18.67;;;15.40;28.00;;;;;;5081547;28;20409;-56
2022/03/09 12:00:10;;;;;;;23.98;16.95;;;15.30;27.50;;;;;;5079900;28;20418;-56
2022/03/09 12:02:42;;;;;;;21.63;15.27;;;15.40;27.60;;;;;;5078977;28;20395;-56
2022/03/09 12:05:31;;;;;;;24.05;16.90;;;15.50;26.90;;;;;;5077570;28;20946;-56
2022/03/09 12:08:06;;;;;;;22.27;15.07;;;15.50;26.40;;;;;;5078705;28;20477;-56
2022/03/09 12:10:50;;;;;;;20.73;14.70;;;15.40;26.30;;;;;;5083095;28;20451;-57
2022/03/09 12:13:22;;;;;;;22.85;16.50;;;15.10;26.60;;;;;;5078093;28;20813;-56
2022/03/09 12:16:12;;;;;;;22.92;17.58;;;15.10;27.30;;;;;;5072454;28;20486;-56
2022/03/09 12:18:46;;;;;;;22.15;15.43;;;14.70;28.00;;;;;;5089631;28;20445;-56
2022/03/09 12:21:40;;;;;;;22.20;16.92;;;14.90;28.00;;;;;;5091813;28;20400;-56
2022/03/09 12:24:05;;;;;;;24.00;17.13;;;14.80;28.90;;;;;;5091235;28;20475;-56
2022/03/09 12:26:57;;;;;;;20.67;16.85;;;15.10;28.30;;;;;;5089942;28;20457;-56
2022/03/09 12:29:29;;;;;;;22.38;16.40;;;14.90;28.70;;;;;;5086577;28;20438;-56
2022/03/09 12:32:04;;;;;;;21.23;16.00;;;14.90;28.50;;;;;;5091403;28;20402;-56
2022/03/09 12:34:35;;;;;;;22.70;16.08;;;15.10;28.90;;;;;;5090528;28;20400;-57
2022/03/09 12:37:01;;;;;;;22.85;15.38;;;15.20;28.20;;;;;;5091546;28;20419;-56